createdAt,value
2023-04-06T00:03:11.275Z,12.15
2023-04-06T00:08:14.005Z,11.07
2023-04-06T00:13:15.035Z,11.50
2023-04-06T00:18:13.632Z,11.80
2023-04-06T00:23:15.950Z,13.15
2023-04-06T00:28:17.817Z,10.43
2023-04-06T00:33:16.897Z,10.25
2023-04-06T00:38:19.223Z,12.40
2023-04-06T00:43:21.163Z,9.98
2023-04-06T00:48:21.907Z,11.55
2023-04-06T00:53:22.863Z,11.40
2023-04-06T00:58:22.967Z,12.05
2023-04-06T01:03:27.805Z,11.60
2023-04-06T01:08:28.174Z,9.82
2023-04-06T01:13:43.354Z,10.80
2023-04-06T01:18:51.914Z,10.00
2023-04-06T01:23:57.534Z,10.57
2023-04-06T01:29:04.549Z,10.60
2023-04-06T01:34:05.058Z,9.27
2023-04-06T01:39:08.020Z,9.65
2023-04-06T01:44:10.602Z,9.18
2023-04-06T01:49:10.452Z,10.35
2023-04-06T01:54:12.609Z,10.85
2023-04-06T01:59:30.371Z,10.00
2023-04-06T02:04:32.560Z,10.57
2023-04-06T02:09:41.084Z,11.43
2023-04-06T02:14:46.390Z,12.60
2023-04-06T02:19:45.464Z,10.68
2023-04-06T02:24:44.245Z,9.93
2023-04-06T02:29:43.986Z,8.90
2023-04-06T02:34:42.921Z,9.93
2023-04-06T02:39:43.549Z,10.60
2023-04-06T02:44:43.799Z,10.13
2023-04-06T02:49:43.643Z,9.70
2023-04-06T02:54:42.366Z,9.77
2023-04-06T02:59:41.761Z,9.50
2023-04-06T03:04:47.699Z,10.90
2023-04-06T03:09:54.863Z,10.32
2023-04-06T03:14:53.667Z,9.63
2023-04-06T03:19:53.003Z,10.55
2023-04-06T03:24:52.977Z,9.48
2023-04-06T03:29:51.735Z,10.00
2023-04-06T03:34:57.918Z,9.95
2023-04-06T03:39:58.835Z,9.63
2023-04-06T03:44:57.108Z,10.90
2023-04-06T03:49:55.197Z,11.18
2023-04-06T03:54:53.892Z,10.30
2023-04-06T03:59:53.978Z,12.02
2023-04-06T04:04:53.161Z,11.52
2023-04-06T04:09:51.564Z,12.20
2023-04-06T04:14:51.332Z,11.93
2023-04-06T04:19:51.122Z,12.15
2023-04-06T04:24:49.719Z,11.45
2023-04-06T04:29:48.773Z,12.90
2023-04-06T04:34:48.776Z,13.57
2023-04-06T04:39:59.341Z,13.35
2023-04-06T04:45:01.562Z,12.65
2023-04-06T04:50:10.673Z,13.98
2023-04-06T04:55:15.418Z,14.75
2023-04-06T05:00:21.631Z,13.45
2023-04-06T05:05:21.841Z,12.88
2023-04-06T05:10:22.659Z,12.98
2023-04-06T05:15:26.147Z,12.18
2023-04-06T05:20:29.692Z,12.05
2023-04-06T05:25:28.565Z,12.15
2023-04-06T05:30:31.877Z,13.35
2023-04-06T05:35:31.861Z,13.05
2023-04-06T05:40:36.890Z,13.35
2023-04-06T05:45:36.220Z,12.55
2023-04-06T05:50:36.744Z,13.35
2023-04-06T05:55:38.719Z,11.70
2023-04-06T06:00:48.645Z,14.93
2023-04-06T06:05:49.505Z,13.05
2023-04-06T06:10:56.402Z,14.68
2023-04-06T06:15:59.847Z,12.45
2023-04-06T06:20:59.663Z,14.38
2023-04-06T06:25:59.576Z,12.40
2023-04-06T06:30:59.841Z,15.30
2023-04-06T06:35:58.626Z,13.27
2023-04-06T06:40:58.384Z,12.82
2023-04-06T06:46:01.699Z,14.02
2023-04-06T06:51:00.638Z,12.82
2023-04-06T06:55:58.527Z,14.20
2023-04-06T07:01:01.170Z,13.45
2023-04-06T07:06:03.052Z,10.77
2023-04-06T07:11:01.735Z,12.38
2023-04-06T07:15:59.716Z,12.13
2023-04-06T07:20:59.442Z,11.25
2023-04-06T07:25:58.484Z,11.82
2023-04-06T07:30:57.378Z,11.80
2023-04-06T07:35:59.844Z,11.18
2023-04-06T07:41:01.435Z,12.73
2023-04-06T07:46:01.712Z,11.25
2023-04-06T07:51:06.148Z,11.68
2023-04-06T07:56:13.624Z,9.70
2023-04-06T08:01:12.367Z,10.93
2023-04-06T08:06:10.806Z,10.93
2023-04-06T08:11:10.154Z,11.80
2023-04-06T08:16:08.917Z,11.90
2023-04-06T08:21:10.849Z,10.90
2023-04-06T08:26:08.943Z,9.68
2023-04-06T08:31:10.635Z,9.80
2023-04-06T08:36:11.162Z,11.15
2023-04-06T08:41:11.149Z,10.93
2023-04-06T08:46:10.214Z,11.02
2023-04-06T08:51:08.696Z,11.88
2023-04-06T08:56:07.738Z,10.85
2023-04-06T09:01:11.717Z,9.75
2023-04-06T09:06:13.237Z,11.07
2023-04-06T09:11:12.291Z,11.05
2023-04-06T09:16:10.071Z,11.18
2023-04-06T09:21:09.447Z,11.80
2023-04-06T09:26:08.471Z,11.27
2023-04-06T09:31:07.572Z,11.60
2023-04-06T09:36:10.789Z,11.32
2023-04-06T09:41:09.186Z,10.13
2023-04-06T09:46:11.561Z,10.90
2023-04-06T09:51:14.168Z,10.18
2023-04-06T09:56:16.947Z,10.20
2023-04-06T10:01:18.145Z,10.83
2023-04-06T10:06:17.021Z,10.80
2023-04-06T10:11:15.951Z,11.48
2023-04-06T10:16:16.024Z,10.45
2023-04-06T10:21:18.502Z,10.32
2023-04-06T10:26:22.758Z,10.05
2023-04-06T10:31:29.119Z,10.20
2023-04-06T10:36:29.463Z,9.15
2023-04-06T10:41:35.447Z,10.52
2023-04-06T10:46:34.495Z,9.90
2023-04-06T10:51:34.019Z,9.82
2023-04-06T10:56:33.034Z,9.98
2023-04-06T11:01:32.230Z,9.15
2023-04-06T11:06:32.318Z,9.60
2023-04-06T11:11:30.995Z,9.05
2023-04-06T11:16:30.966Z,8.90
2023-04-06T11:21:44.534Z,8.13
2023-04-06T11:26:49.995Z,9.82
2023-04-06T11:31:53.132Z,8.55
2023-04-06T11:36:56.307Z,8.00
2023-04-06T11:42:06.123Z,8.10
2023-04-06T11:47:07.973Z,6.85
2023-04-06T11:52:20.284Z,7.15
2023-04-06T11:57:19.801Z,7.25
2023-04-06T12:02:19.004Z,7.72
2023-04-06T12:07:16.830Z,7.47
2023-04-06T12:12:16.545Z,5.80
2023-04-06T12:17:15.073Z,7.38
2023-04-06T12:22:14.986Z,6.82
2023-04-06T12:27:13.746Z,8.40
2023-04-06T12:32:13.219Z,8.50
2023-04-06T12:37:12.552Z,7.55
2023-04-06T12:42:11.970Z,7.55
2023-04-06T12:47:12.519Z,6.30
2023-04-06T12:52:10.621Z,7.10
2023-04-06T12:57:10.719Z,6.68
2023-04-06T13:02:10.001Z,6.50
2023-04-06T13:07:11.221Z,6.10
2023-04-06T13:12:12.273Z,5.95
2023-04-06T13:17:11.003Z,5.97
2023-04-06T13:22:09.803Z,4.93
2023-04-06T13:27:08.603Z,5.82
2023-04-06T13:32:06.865Z,5.47
2023-04-06T13:37:06.059Z,5.40
2023-04-06T13:42:06.609Z,5.45
2023-04-06T13:47:04.788Z,4.82
2023-04-06T13:52:05.265Z,4.43
2023-04-06T13:57:08.597Z,4.07
2023-04-06T14:02:09.698Z,4.28
2023-04-06T14:07:08.602Z,4.07
2023-04-06T14:12:07.563Z,5.95
2023-04-06T14:17:06.840Z,4.82
2023-04-06T14:22:09.925Z,4.35
2023-04-06T14:27:15.143Z,4.45
2023-04-06T14:32:18.888Z,5.60
2023-04-06T14:37:19.337Z,4.32
2023-04-06T14:42:17.852Z,4.05
2023-04-06T14:47:21.350Z,3.85
2023-04-06T14:57:21.090Z,4.22
2023-04-06T15:02:21.817Z,4.40
2023-04-06T15:07:24.308Z,4.20
2023-04-06T15:12:23.010Z,3.70
2023-04-06T15:17:21.883Z,3.50
2023-04-06T15:22:21.091Z,3.83
2023-04-06T15:27:22.097Z,3.55
2023-04-06T15:32:23.913Z,4.13
2023-04-06T15:37:22.709Z,4.72
2023-04-06T15:42:20.502Z,3.53
2023-04-06T15:47:21.398Z,3.90
2023-04-06T15:52:22.575Z,4.03
2023-04-06T15:57:21.309Z,3.55
2023-04-06T16:02:22.436Z,4.75
2023-04-06T16:07:21.404Z,3.97
2023-04-06T16:12:23.687Z,3.78
2023-04-06T16:17:28.839Z,4.30
2023-04-06T16:22:30.368Z,4.45
2023-04-06T16:27:31.105Z,3.90
2023-04-06T16:32:29.334Z,5.07
2023-04-06T16:37:31.626Z,4.63
2023-04-06T16:42:33.638Z,3.78
2023-04-06T16:47:34.260Z,4.50
2023-04-06T16:52:37.299Z,3.17
2023-04-06T16:57:39.178Z,4.28
2023-04-06T17:02:45.204Z,3.22
2023-04-06T17:07:46.269Z,3.80
2023-04-06T17:12:46.666Z,3.03
2023-04-06T17:17:54.597Z,2.80
2023-04-06T17:22:52.794Z,3.33
2023-04-06T17:27:51.993Z,2.97
2023-04-06T17:32:52.077Z,2.80
2023-04-06T17:37:53.015Z,2.97
2023-04-06T17:42:53.414Z,3.15
2023-04-06T17:47:52.091Z,2.60
2023-04-06T17:52:54.148Z,3.05
2023-04-06T17:57:52.848Z,3.35
2023-04-06T18:02:54.829Z,3.40
2023-04-06T18:07:58.458Z,3.50
2023-04-06T18:13:01.486Z,4.00
2023-04-06T18:18:06.938Z,3.95
2023-04-06T18:23:05.794Z,4.38
2023-04-06T18:28:08.905Z,3.50
2023-04-06T18:33:22.965Z,3.80
2023-04-06T18:38:43.737Z,4.18
2023-04-06T18:43:47.274Z,3.97
2023-04-06T18:48:46.662Z,4.15
2023-04-06T18:53:55.891Z,4.65
2023-04-06T18:58:57.373Z,3.47
2023-04-06T19:04:01.232Z,4.10
2023-04-06T19:09:04.089Z,4.32
2023-04-06T19:14:04.844Z,4.20
2023-04-06T19:19:03.263Z,3.85
2023-04-06T19:24:08.981Z,3.83
2023-04-06T19:34:09.975Z,4.00
2023-04-06T19:39:09.614Z,4.88
2023-04-06T19:44:24.971Z,4.78
2023-04-06T19:49:23.373Z,4.57
2023-04-06T19:54:22.255Z,4.93
2023-04-06T19:59:24.616Z,4.50
2023-04-06T20:04:28.034Z,5.15
2023-04-06T20:09:28.961Z,5.38
2023-04-06T20:14:30.707Z,4.95
2023-04-06T20:19:29.152Z,5.32
2023-04-06T20:24:31.536Z,5.68
2023-04-06T20:29:36.228Z,5.40
2023-04-06T20:34:39.341Z,5.60
2023-04-06T20:39:42.976Z,4.37
2023-04-06T20:44:45.409Z,4.90
2023-04-06T20:49:45.072Z,4.50
2023-04-06T20:54:44.261Z,4.95
2023-04-06T20:59:42.501Z,4.68
2023-04-06T21:04:49.206Z,5.20
2023-04-06T21:09:49.754Z,4.78
2023-04-06T21:14:49.767Z,5.00
2023-04-06T21:19:52.449Z,5.28
2023-04-06T21:24:52.853Z,5.80
2023-04-06T21:29:52.812Z,5.75
2023-04-06T21:34:54.420Z,7.00
2023-04-06T21:39:53.430Z,5.68
2023-04-06T21:44:53.009Z,5.22
2023-04-06T21:49:55.179Z,5.68
2023-04-06T21:54:54.060Z,5.75
2023-04-06T21:59:55.494Z,5.07
2023-04-06T22:04:55.706Z,5.63
2023-04-06T22:09:55.702Z,5.32
2023-04-06T22:14:53.476Z,6.07
2023-04-06T22:19:52.991Z,5.75
2023-04-06T22:24:53.985Z,6.13
2023-04-06T22:29:55.117Z,5.63
2023-04-06T22:34:54.032Z,6.22
2023-04-06T22:39:52.862Z,5.30
2023-04-06T22:44:57.680Z,5.43
2023-04-06T22:49:57.001Z,5.75
2023-04-06T22:54:55.333Z,5.95
2023-04-06T22:59:58.095Z,5.28
2023-04-06T23:04:56.962Z,5.85
2023-04-06T23:09:58.995Z,5.65
2023-04-06T23:14:58.823Z,6.80
2023-04-06T23:19:58.230Z,6.30
2023-04-06T23:24:58.237Z,5.95
2023-04-06T23:30:01.103Z,6.88
2023-04-06T23:34:59.960Z,6.93
2023-04-06T23:39:59.223Z,6.45
2023-04-06T23:44:57.619Z,7.03
2023-04-06T23:49:56.610Z,7.13
2023-04-06T23:54:56.043Z,7.40
2023-04-06T23:59:55.907Z,7.47
